Create Tblcommutelog Verified Points Advance Search
| # | Trip ID | Id Commuter | Trip Date | Trip Num | Current Lat | Current Lng | Delta Distance | Current Time | Activity | Activity Confidence | Current Speed | |
|---|---|---|---|---|---|---|---|---|---|---|---|---|
| 70741 | 250829_780933_16648605_1718 | 780933 | (not set) | (not set) | 38.961299884989 | -76.861023773992 | 10.4667 | 2025-08-29 17:39:48 | in_vehicle | 100 | 13.692812502794 | |
| 70742 | 250829_771304_16638458_1707 | 771304 | (not set) | (not set) | 38.922313763247 | -77.04267542419 | 2.207 | 2025-08-29 17:40:10 | unknown | 100 | 0.0089407851797545 | |
| 70743 | 250829_784252_16656535_1701 | 784252 | (not set) | (not set) | 39.404887419288 | -77.356955340351 | 40.0261 | 2025-08-29 17:40:23 | in_vehicle | 100 | 16.772912997219 | |
| 70744 | 250829_783292_16651014_1719 | 783292 | (not set) | (not set) | 38.89372673343 | -76.971824459734 | 6.9436 | 2025-08-29 17:40:31 | in_vehicle | 100 | 12.217582948135 | |
| 70745 | 250829_764454_16631362_1628 | 764454 | (not set) | (not set) | 38.968194110252 | -77.429046368215 | 25.3724 | 2025-08-29 17:21:08 | in_vehicle | 100 | 9.7096927052134 | |
| 70746 | 250829_772509_16639785_1645 | 772509 | (not set) | (not set) | 38.716088666667 | -76.990024166667 | 18.9676 | 2025-08-29 17:21:46 | in_vehicle | 100 | 10.371310808515 | |
| 70747 | 250829_771304_16638458_1707 | 771304 | (not set) | (not set) | 38.901432623893 | -77.05008813312 | 0.5008 | 2025-08-29 17:22:26 | unknown | 100 | 3.2008010943521 | |
| 70748 | 250829_784252_16656535_1701 | 784252 | (not set) | (not set) | 39.30992469079 | -76.959091502871 | 17.2073 | 2025-08-29 17:23:00 | in_vehicle | 100 | 15.740252308958 | |
| 70749 | 250829_784252_16656535_1701 | 784252 | (not set) | (not set) | 39.315052746442 | -76.972101376408 | 17.9896 | 2025-08-29 17:23:36 | in_vehicle | 100 | 15.208275590762 | |
| 70750 | 250829_772509_16639785_1645 | 772509 | (not set) | (not set) | 38.687970833333 | -76.992159166667 | 21.0086 | 2025-08-29 17:24:09 | still | 33 | 8.301519039402 | |
| 70751 | 250829_780933_16648605_1718 | 780933 | (not set) | (not set) | 38.898015462987 | -77.006112952376 | 0.3471 | 2025-08-29 17:24:39 | running | 100 | 0.50068397006625 | |
| 70752 | 250829_780933_16648605_1718 | 780933 | (not set) | (not set) | 38.897613714559 | -77.005601706767 | 0.5264 | 2025-08-29 17:25:08 | running | 100 | 0.18328609618497 | |
| 70753 | 250829_788267_16656854_1535 | 788267 | (not set) | (not set) | 38.899400191435 | -77.021546948966 | 41.0078 | 2025-08-29 17:25:30 | on_foot | 66 | -0.44703925898772 | |
| 70754 | 250829_784252_16656535_1701 | 784252 | (not set) | (not set) | 39.329384029695 | -77.023237683598 | 20.9265 | 2025-08-29 17:25:48 | in_vehicle | 100 | 15.936949582912 | |
| 70755 | 250829_775525_16642993_1720 | 775525 | (not set) | (not set) | 38.80384850702 | -77.059546766488 | 0.7768 | 2025-08-29 17:26:12 | unknown | 100 | 2.2441370801184 | |
| 70756 | 250829_771304_16638458_1707 | 771304 | (not set) | (not set) | 38.905757944266 | -77.047056740166 | 0.8507 | 2025-08-29 17:26:47 | unknown | 100 | 0.044703925898772 | |
| 70757 | 250829_787797_16656315_1646 | 787797 | (not set) | (not set) | 39.035803820006 | -77.107983051505 | 11.6862 | 2025-08-29 17:27:23 | unknown | 100 | -0.44703925898772 | |
| 70758 | 250829_788267_16656854_1535 | 788267 | (not set) | (not set) | 38.899381454355 | -77.021499941343 | 41.0078 | 2025-08-29 17:27:58 | on_foot | 66 | -0.44703925898772 | |
| 70759 | 250829_764454_16631362_1628 | 764454 | (not set) | (not set) | 38.975475558732 | -77.432773256519 | 26.711 | 2025-08-29 17:28:23 | on_foot | 100 | -0.44703925898772 | |
| 70760 | 250829_771304_16638458_1707 | 771304 | (not set) | (not set) | 38.909101454288 | -77.043667283504 | 1.1454 | 2025-08-29 17:28:57 | unknown | 100 | 0.16987491841534 |